Time;durP1;ratioP1;P1;durP2;ratioP2;P2;SDS_P1;SDS_P2;PMS_P1;PMS_P2;Temp;Humidity;BMP_temperature;BMP_pressure;BME280_temperature;BME280_humidity;BME280_pressure;Samples;Min_cycle;Max_cycle;Signal;HPM_P1;HPM_P2
2023/07/10 00:02:52;;;;;;;5.60;5.00;;;;;;;15.63;84.14;98128.94;6302870;28;20226;-54
2023/07/10 00:05:58;;;;;;;8.13;5.47;;;;;;;15.60;84.58;98126.75;6303718;28;20231;-54
2023/07/10 00:09:00;;;;;;;8.83;5.57;;;;;;;15.60;84.43;98124.06;6303615;28;20257;-50
2023/07/10 00:12:04;;;;;;;5.47;4.97;;;;;;;15.59;84.58;98125.13;6303027;28;20689;-53
2023/07/10 00:15:15;;;;;;;7.03;5.47;;;;;;;15.55;84.42;98125.91;6303026;28;20225;-54
2023/07/10 00:18:21;;;;;;;5.43;4.93;;;;;;;15.51;84.78;98130.19;6300611;28;20687;-54
2023/07/10 00:21:23;;;;;;;6.20;5.60;;;;;;;15.44;85.15;98125.06;6303173;28;20226;-54
2023/07/10 00:24:26;;;;;;;6.77;5.37;;;;;;;15.40;85.65;98123.97;6302038;28;20221;-53
2023/07/10 00:27:28;;;;;;;6.00;5.40;;;;;;;15.40;85.26;98121.28;6301760;28;20301;-54
2023/07/10 00:30:31;;;;;;;6.97;4.90;;;;;;;15.37;85.36;98125.31;6301454;28;20324;-53
2023/07/10 00:33:34;;;;;;;6.73;5.10;;;;;;;15.22;85.04;98101.91;6300778;28;20313;-54
2023/07/10 00:36:38;;;;;;;5.87;5.27;;;;;;;15.34;85.51;98123.16;6300329;28;20233;-54
2023/07/10 00:39:40;;;;;;;6.23;5.20;;;;;;;15.36;85.60;98122.88;6302594;28;20878;-54
2023/07/10 00:42:42;;;;;;;7.77;5.13;;;;;;;15.25;85.47;98124.72;6300993;28;20314;-55
2023/07/10 00:45:45;;;;;;;6.07;5.47;;;;;;;15.28;85.53;98128.75;6303254;28;20324;-54
2023/07/10 00:48:54;;;;;;;7.20;5.53;;;;;;;15.21;85.87;98129.78;6303567;28;20248;-54
2023/07/10 00:52:20;;;;;;;5.63;5.13;;;;;;;15.15;86.13;98132.72;6301155;28;20233;-54
2023/07/10 00:55:31;;;;;;;5.60;5.03;;;;;;;15.11;86.13;98131.59;6292897;28;20282;-54
2023/07/10 00:58:39;;;;;;;7.57;5.47;;;;;;;15.09;86.53;98128.38;6303435;28;20651;-54
2023/07/10 01:02:07;;;;;;;6.80;6.10;;;;;;;15.08;86.46;98126.78;6297395;28;20226;-54
2023/07/10 01:05:10;;;;;;;5.67;5.07;;;;;;;15.06;86.66;98118.97;6299216;28;20225;-55
2023/07/10 01:08:12;;;;;;;5.57;5.07;;;;;;;15.07;86.35;98117.09;6302463;28;20236;-54
2023/07/10 01:11:15;;;;;;;6.17;5.10;;;;;;;15.03;86.60;98116.03;6303278;28;20237;-54
2023/07/10 01:14:19;;;;;;;7.00;5.30;;;;;;;14.93;86.82;98106.84;6302170;28;20285;-55
2023/07/10 01:17:21;;;;;;;5.23;4.73;;;;;;;14.99;86.73;98117.59;6298785;28;20285;-54
2023/07/10 01:20:50;;;;;;;6.20;5.57;;;;;;;14.93;87.14;98117.56;6302525;28;20221;-55
2023/07/10 01:23:53;;;;;;;6.97;5.17;;;;;;;14.77;87.39;98089.00;6292279;28;20772;-54
2023/07/10 01:26:56;;;;;;;6.03;5.37;;;;;;;14.75;87.43;98096.53;6302359;28;20241;-54
2023/07/10 01:30:33;;;;;;;5.50;4.93;;;;;;;14.86;88.02;98118.84;6305135;28;20390;-54
2023/07/10 01:33:42;;;;;;;7.70;4.93;;;;;;;14.75;87.91;98098.41;6306699;28;20298;-54
2023/07/10 01:36:45;;;;;;;13.27;5.13;;;;;;;14.80;87.53;98119.88;6303010;28;20218;-54
2023/07/10 01:39:52;;;;;;;9.37;5.83;;;;;;;14.77;88.14;98118.50;6307203;28;20579;-54
2023/07/10 01:42:59;;;;;;;5.73;5.23;;;;;;;14.73;88.25;98113.94;6303078;28;20230;-54
2023/07/10 01:46:17;;;;;;;9.60;5.60;;;;;;;14.69;88.14;98106.41;6306634;28;20599;-54
2023/07/10 01:49:27;;;;;;;8.73;5.00;;;;;;;14.73;88.16;98121.97;6306792;28;20292;-54
2023/07/10 01:52:30;;;;;;;6.00;5.27;;;;;;;14.71;88.28;98108.81;6302111;28;20241;-54
2023/07/10 01:55:38;;;;;;;6.00;5.40;;;;;;;14.59;88.39;98095.63;6307319;28;20244;-54
2023/07/10 01:58:40;;;;;;;7.20;4.93;;;;;;;14.59;88.30;98092.13;6321257;28;20232;-54
2023/07/10 02:01:43;;;;;;;5.23;4.73;;;;;;;14.65;88.39;98110.66;6307459;28;20240;-54
2023/07/10 02:04:45;;;;;;;5.87;5.07;;;;;;;14.58;88.17;98098.53;6306762;28;20237;-54
2023/07/10 02:07:47;;;;;;;6.77;5.17;;;;;;;14.44;88.43;98076.72;6306545;28;20233;-55
2023/07/10 02:10:50;;;;;;;7.53;5.20;;;;;;;14.61;88.34;98109.56;6315739;28;20826;-54
2023/07/10 02:13:52;;;;;;;6.23;5.17;;;;;;;14.61;88.47;98106.88;6307069;28;20608;-54
2023/07/10 02:16:55;;;;;;;6.53;5.50;;;;;;;14.59;88.46;98103.66;6306440;28;20619;-54
2023/07/10 02:19:57;;;;;;;5.73;5.10;;;;;;;14.59;88.62;98095.63;6307259;28;20238;-54
2023/07/10 02:22:59;;;;;;;6.23;5.10;;;;;;;14.59;88.81;98100.97;6306845;28;20260;-54
2023/07/10 02:26:03;;;;;;;6.50;5.37;;;;;;;14.39;88.81;98068.63;6311102;28;20366;-54
2023/07/10 02:29:05;;;;;;;6.87;4.67;;;;;;;14.57;88.71;98104.97;6310091;28;20584;-54
2023/07/10 02:32:08;;;;;;;5.70;5.00;;;;;;;14.56;88.88;98100.69;6304950;28;20367;-51
2023/07/10 02:35:10;;;;;;;6.50;5.13;;;;;;;14.56;89.23;98101.47;6305047;28;20236;-54
2023/07/10 02:38:12;;;;;;;7.87;4.93;;;;;;;14.54;88.96;98098.25;6306270;28;20725;-53
2023/07/10 02:41:15;;;;;;;6.50;5.13;;;;;;;14.43;89.23;98078.59;6320584;28;20603;-54
2023/07/10 02:44:17;;;;;;;7.23;5.70;;;;;;;14.51;89.73;98101.44;6305517;28;20229;-54
2023/07/10 02:47:19;;;;;;;5.87;5.27;;;;;;;14.42;89.76;98084.19;6305684;28;20779;-54
2023/07/10 02:50:21;;;;;;;8.60;4.93;;;;;;;14.52;89.78;98094.22;6304097;28;20608;-53
2023/07/10 02:53:23;;;;;;;7.60;4.77;;;;;;;14.52;89.50;98097.69;6305623;28;20225;-55
2023/07/10 02:56:25;;;;;;;7.37;5.33;;;;;;;14.52;89.75;98096.88;6305328;28;20229;-55
2023/07/10 02:59:28;;;;;;;6.67;5.23;;;;;;;14.50;89.99;98093.66;6298130;28;20217;-54
2023/07/10 03:02:31;;;;;;;6.37;5.20;;;;;;;14.52;89.61;98088.84;6305575;28;20229;-54
2023/07/10 03:05:33;;;;;;;6.57;5.37;;;;;;;14.53;90.11;98096.66;6303390;28;20304;-60
2023/07/10 03:08:35;;;;;;;6.53;5.23;;;;;;;14.54;90.01;98092.09;6305052;28;20651;-55
2023/07/10 03:11:37;;;;;;;6.20;5.17;;;;;;;14.56;89.55;98100.69;6304614;28;20222;-54
2023/07/10 03:14:39;;;;;;;7.20;5.37;;;;;;;14.57;90.18;98096.91;6302125;28;20255;-55
2023/07/10 03:17:42;;;;;;;5.60;5.00;;;;;;;14.31;90.22;98058.38;6285864;28;20225;-55
2023/07/10 03:20:44;;;;;;;5.17;4.67;;;;;;;14.56;90.19;98088.06;6304618;28;20616;-55
2023/07/10 03:23:50;;;;;;;6.63;5.00;;;;;;;14.56;90.04;98092.63;6304756;28;20274;-55
2023/07/10 03:26:52;;;;;;;5.30;4.80;;;;;;;14.58;90.09;98093.16;6300101;28;20607;-55
2023/07/10 03:29:54;;;;;;;5.17;4.67;;;;;;;14.58;90.69;98093.16;6301240;28;20237;-55
2023/07/10 03:32:56;;;;;;;6.00;5.30;;;;;;;14.57;90.86;98087.00;6304241;28;20252;-55
2023/07/10 03:36:07;;;;;;;6.27;5.03;;;;;;;14.54;90.82;98084.84;6302272;28;20225;-55
2023/07/10 03:39:12;;;;;;;6.43;5.37;;;;;;;14.59;91.24;98086.75;6301762;28;20303;-55
2023/07/10 03:42:15;;;;;;;5.77;5.10;;;;;;;14.60;91.29;98085.69;6304551;28;20318;-55
2023/07/10 03:45:17;;;;;;;7.60;5.60;;;;;;;14.63;91.46;98091.34;6303562;28;20214;-55
2023/07/10 03:48:19;;;;;;;7.37;5.37;;;;;;;14.67;91.47;98081.72;6302735;28;20726;-53
2023/07/10 03:51:21;;;;;;;6.60;5.20;;;;;;;14.75;91.00;98085.00;6301120;28;20237;-53
2023/07/10 03:54:23;;;;;;;6.40;5.33;;;;;;;14.79;91.31;98081.53;6302500;28;20629;-54
2023/07/10 03:57:26;;;;;;;9.90;5.70;;;;;;;14.67;91.15;98057.56;6304308;28;20256;-53
2023/07/10 04:00:28;;;;;;;7.23;5.10;;;;;;;14.92;90.98;98094.47;6303343;28;20287;-53
2023/07/10 04:03:33;;;;;;;5.87;5.27;;;;;;;14.80;90.97;98060.88;6304063;28;20228;-53
2023/07/10 04:06:35;;;;;;;6.17;5.53;;;;;;;15.03;90.89;98090.00;6303343;28;20218;-54
2023/07/10 04:09:37;;;;;;;5.87;5.23;;;;;;;15.07;90.75;98092.94;6299697;28;20214;-52
2023/07/10 04:12:40;;;;;;;8.47;5.30;;;;;;;15.11;90.73;98086.00;6302476;28;20232;-53
2023/07/10 04:15:53;;;;;;;6.57;5.63;;;;;;;15.17;91.54;98093.00;6303274;28;20239;-54
2023/07/10 04:18:55;;;;;;;7.10;6.40;;;;;;;15.27;91.42;98092.22;6303442;28;20253;-54
2023/07/10 04:21:58;;;;;;;6.40;5.50;;;;;;;15.34;91.20;98107.03;6285880;28;20238;-53
2023/07/10 04:25:05;;;;;;;9.43;5.90;;;;;;;15.42;90.86;98113.81;6302771;28;20265;-53
2023/07/10 04:28:07;;;;;;;8.50;5.77;;;;;;;15.50;90.90;98110.59;6303001;28;20576;-54
2023/07/10 04:31:09;;;;;;;9.33;5.77;;;;;;;15.59;91.06;98108.22;6307465;28;20237;-53
2023/07/10 04:34:12;;;;;;;9.27;6.23;;;;;;;15.63;90.63;98110.13;6302838;28;20698;-53
2023/07/10 04:37:14;;;;;;;9.23;5.87;;;;;;;15.71;90.29;98104.28;6304425;28;20237;-53
2023/07/10 04:40:16;;;;;;;6.67;5.97;;;;;;;15.61;90.02;98074.63;6302846;28;20233;-53
2023/07/10 04:43:18;;;;;;;7.10;6.10;;;;;;;15.95;89.79;98109.13;6303111;28;20374;-53
2023/07/10 04:46:21;;;;;;;5.73;5.13;;;;;;;16.01;89.28;98116.16;6302643;28;20221;-53
2023/07/10 04:49:23;;;;;;;6.60;6.00;;;;;;;16.05;88.84;98122.59;6299235;28;20245;-54
2023/07/10 04:52:25;;;;;;;6.73;6.03;;;;;;;16.10;89.00;98125.28;6296801;28;20225;-53
2023/07/10 04:55:27;;;;;;;5.93;5.33;;;;;;;15.94;89.04;98099.47;6302362;28;20706;-53
2023/07/10 04:58:48;;;;;;;6.50;5.90;;;;;;;16.12;88.70;98106.22;6302928;28;20279;-53
2023/07/10 05:01:50;;;;;;;7.03;5.50;;;;;;;16.27;88.80;98122.38;6301392;28;20233;-53
2023/07/10 05:04:52;;;;;;;7.93;5.80;;;;;;;16.36;89.20;98125.34;6301255;28;20780;-54
2023/07/10 05:07:55;;;;;;;5.87;5.27;;;;;;;16.42;89.19;98126.94;6300638;28;21858;-54
2023/07/10 05:10:57;;;;;;;6.77;5.83;;;;;;;16.47;89.03;98125.06;6303610;28;20417;-54
2023/07/10 05:13:59;;;;;;;6.47;5.77;;;;;;;16.54;89.00;98122.09;6302222;28;20355;-54
2023/07/10 05:17:02;;;;;;;7.97;5.83;;;;;;;16.43;89.09;98102.47;6301718;28;20323;-54
2023/07/10 05:20:04;;;;;;;6.30;5.60;;;;;;;16.64;89.39;98115.91;6302628;28;20226;-54
2023/07/10 05:23:07;;;;;;;9.83;6.60;;;;;;;16.67;89.55;98104.63;6303621;28;20623;-54
2023/07/10 05:26:11;;;;;;;6.23;5.63;;;;;;;16.93;89.26;98132.31;6301871;28;20779;-54
2023/07/10 05:29:16;;;;;;;6.03;5.43;;;;;;;16.93;89.02;98116.16;6302748;28;20232;-54
2023/07/10 05:32:20;;;;;;;6.50;5.50;;;;;;;17.11;88.90;98129.06;6282904;28;20226;-53
2023/07/10 05:35:23;;;;;;;6.37;5.77;;;;;;;17.18;89.13;98115.31;6299785;28;20268;-51
2023/07/10 05:38:29;;;;;;;8.30;5.47;;;;;;;17.25;88.46;98127.41;6302018;28;20226;-54
2023/07/10 05:41:33;;;;;;;5.83;5.07;;;;;;;17.34;88.41;98126.81;6301710;28;20314;-55
2023/07/10 05:44:35;;;;;;;6.70;5.80;;;;;;;17.16;88.47;98094.06;6301596;28;20241;-55
2023/07/10 05:47:37;;;;;;;5.40;4.90;;;;;;;17.56;88.23;98138.06;6304372;28;20225;-53
2023/07/10 05:50:43;;;;;;;7.57;6.10;;;;;;;17.66;87.77;98145.31;6300323;28;20665;-54
2023/07/10 05:53:45;;;;;;;6.97;5.17;;;;;;;17.76;87.53;98142.59;6296343;28;20230;-54
2023/07/10 05:56:48;;;;;;;6.43;5.80;;;;;;;17.85;88.07;98135.56;6301979;28;20225;-53
2023/07/10 05:59:50;;;;;;;7.00;5.90;;;;;;;17.98;88.16;98143.03;6301004;28;20717;-54
2023/07/10 06:02:53;;;;;;;4.93;4.53;;;;;;;18.04;88.00;98141.13;6299706;28;20226;-41
2023/07/10 06:06:01;;;;;;;5.73;5.13;;;;;;;18.11;88.29;98133.50;6302512;28;20662;-42
2023/07/10 06:09:04;;;;;;;6.07;5.00;;;;;;;17.39;87.86;98011.00;6315124;28;20218;-42
2023/07/10 06:12:07;;;;;;;5.50;4.97;;;;;;;18.22;87.23;98113.47;6300537;28;20218;-40
2023/07/10 06:15:10;;;;;;;6.00;5.33;;;;;;;18.38;86.11;98127.66;6301083;28;20579;-41
2023/07/10 06:18:14;;;;;;;6.00;5.40;;;;;;;18.45;85.74;98120.06;6306663;28;20594;-41
2023/07/10 06:21:17;;;;;;;6.83;4.70;;;;;;;18.36;84.31;98078.56;6305883;28;20621;-41
2023/07/10 06:24:21;;;;;;;7.03;5.20;;;;;;;18.84;82.84;98130.00;6301917;28;20206;-42
2023/07/10 06:27:38;;;;;;;6.67;5.33;;;;;;;18.47;80.40;98039.66;6295478;28;20236;-41
2023/07/10 06:31:14;;;;;;;6.60;5.03;;;;;;;19.30;78.56;98124.94;6311950;28;20218;-40
2023/07/10 06:34:22;;;;;;;5.13;4.67;;;;;;;19.48;78.67;98128.78;6303748;28;20232;-40
2023/07/10 06:37:24;;;;;;;5.27;4.70;;;;;;;19.59;78.65;98132.16;6304048;28;20559;-40
2023/07/10 06:40:27;;;;;;;5.53;5.00;;;;;;;19.77;78.19;98134.13;6287793;28;20657;-40
2023/07/10 06:43:30;;;;;;;5.77;5.00;;;;;;;19.89;78.12;98124.78;6302837;28;20721;-40
2023/07/10 06:46:32;;;;;;;5.93;5.17;;;;;;;20.00;76.95;98110.03;6302952;28;20583;-41
2023/07/10 06:49:34;;;;;;;6.50;4.97;;;;;;;20.17;76.70;98110.31;6304827;28;20245;-41
2023/07/10 06:52:41;;;;;;;6.63;4.77;;;;;;;20.43;74.43;98132.38;6300700;28;20237;-40
2023/07/10 06:55:44;;;;;;;6.87;4.90;;;;;;;20.52;71.90;98114.41;6305406;28;20710;-40
2023/07/10 06:58:46;;;;;;;6.13;4.67;;;;;;;20.87;72.67;98129.22;6300678;28;20234;-41
2023/07/10 07:01:49;;;;;;;5.40;4.60;;;;;;;20.74;72.11;98077.75;6306644;28;20229;-40
2023/07/10 07:04:51;;;;;;;4.80;4.30;;;;;;;21.14;72.60;98124.97;6304797;28;20606;-41
2023/07/10 07:07:54;;;;;;;4.83;4.33;;;;;;;21.00;72.97;98067.28;6299924;28;20229;-41
2023/07/10 07:10:56;;;;;;;4.83;4.43;;;;;;;21.48;72.35;98121.91;6302504;28;20698;-41
2023/07/10 07:13:58;;;;;;;5.00;4.50;;;;;;;21.61;71.83;98128.41;6303058;28;20229;-41
2023/07/10 07:17:09;;;;;;;5.23;4.60;;;;;;;21.63;71.78;98108.03;6301975;28;20245;-41
2023/07/10 07:21:01;;;;;;;5.97;4.43;;;;;;;21.94;71.28;98129.06;6309088;28;20229;-41
2023/07/10 07:24:08;;;;;;;4.70;4.30;;;;;;;21.48;71.31;98040.59;6295659;28;20715;-41
2023/07/10 07:27:11;;;;;;;4.97;4.47;;;;;;;21.95;70.81;98095.41;6303914;28;20217;-41
2023/07/10 07:30:13;;;;;;;5.20;4.70;;;;;;;22.26;71.02;98119.16;6304723;28;20330;-41
2023/07/10 07:33:17;;;;;;;7.70;4.83;;;;;;;22.17;70.87;98083.81;6286543;28;20209;-41
2023/07/10 07:36:20;;;;;;;4.70;4.30;;;;;;;22.62;70.97;98130.78;6303671;28;20238;-41
2023/07/10 07:39:27;;;;;;;10.05;4.93;;;;;;;22.56;71.44;98098.63;6304075;28;20230;-42
2023/07/10 07:42:30;;;;;;;4.93;4.50;;;;;;;22.88;71.66;98124.69;6304154;28;20248;-42
2023/07/10 07:45:58;;;;;;;5.97;4.50;;;;;;;23.03;71.71;98127.06;6303433;28;20225;-42
2023/07/10 07:49:07;;;;;;;6.15;4.80;;;;;;;22.99;71.37;98089.94;6284589;28;20576;-43
2023/07/10 07:52:10;;;;;;;5.18;4.68;;;;;;;23.24;70.97;98110.19;6301894;28;20245;-43
2023/07/10 07:55:12;;;;;;;5.43;4.93;;;;;;;23.37;71.90;98103.84;6303503;28;20218;-44
2023/07/10 07:58:14;;;;;;;7.10;5.40;;;;;;;23.57;71.25;98110.63;6302742;28;20244;-44
2023/07/10 08:01:17;;;;;;;5.90;5.35;;;;;;;23.67;71.55;98113.09;6303622;28;20253;-44
2023/07/10 08:04:19;;;;;;;6.22;4.95;;;;;;;23.86;71.63;98110.88;6301977;28;20713;-45
2023/07/10 08:07:21;;;;;;;5.30;4.80;;;;;;;23.97;71.28;98105.13;6302916;28;20217;-44
2023/07/10 08:10:23;;;;;;;6.30;5.70;;;;;;;24.12;71.04;98110.09;6302057;28;20222;-44
2023/07/10 08:13:25;;;;;;;6.80;5.13;;;;;;;24.26;71.27;98102.56;6302524;28;20698;-46
2023/07/10 08:16:28;;;;;;;6.28;5.30;;;;;;;24.37;70.22;98098.41;6302912;28;20723;-46
2023/07/10 08:19:30;;;;;;;5.82;5.22;;;;;;;24.49;69.47;98099.72;6302969;28;20347;-47
2023/07/10 08:22:32;;;;;;;5.22;4.78;;;;;;;24.64;70.08;98099.22;6304253;28;20225;-44
2023/07/10 08:25:34;;;;;;;10.18;5.85;;;;;;;24.66;69.41;98081.41;6302737;28;20722;-46
2023/07/10 08:28:36;;;;;;;6.20;5.60;;;;;;;24.97;68.07;98104.88;6303548;28;21131;-47
2023/07/10 08:31:38;;;;;;;5.50;5.00;;;;;;;25.09;67.60;98094.13;6303303;28;20327;-45
2023/07/10 08:34:40;;;;;;;6.50;5.55;;;;;;;25.23;69.43;98088.47;6298834;28;20604;-47
2023/07/10 08:37:43;;;;;;;6.00;5.40;;;;;;;25.34;69.47;98089.69;6302428;28;20581;-45
2023/07/10 08:40:49;;;;;;;6.28;5.63;;;;;;;25.48;68.65;98093.00;6301955;28;20602;-44
2023/07/10 08:43:51;;;;;;;6.75;5.07;;;;;;;25.62;68.40;98083.78;6301528;28;20233;-45
2023/07/10 08:46:54;;;;;;;6.95;5.28;;;;;;;25.73;68.67;98087.72;6304009;28;20240;-45
2023/07/10 08:50:10;;;;;;;6.05;5.22;;;;;;;25.61;68.86;98066.56;6313059;28;20234;-45
2023/07/10 08:56:46;;;;;;;6.57;5.50;;;;;;;25.81;67.57;98081.41;6254655;28;20222;-46
2023/07/10 08:59:50;;;;;;;6.28;5.68;;;;;;;26.07;65.29;98083.97;6239786;28;20235;-44
2023/07/10 09:03:30;;;;;;;6.85;5.95;;;;;;;26.23;63.84;98084.16;6245134;28;20306;-45
2023/07/10 09:06:41;;;;;;;6.50;4.93;;;;;;;26.37;61.41;98081.94;6238344;28;20318;-45
2023/07/10 09:10:06;;;;;;;6.82;5.25;;;;;;;26.52;59.11;98071.53;6247021;28;20229;-48
2023/07/10 09:13:16;;;;;;;7.18;5.40;;;;;;;26.59;59.16;98080.78;6240600;28;20647;-46
2023/07/10 09:16:20;;;;;;;6.95;4.63;;;;;;;26.66;57.15;98074.78;6229571;28;20243;-45
2023/07/10 09:19:23;;;;;;;6.32;4.55;;;;;;;26.66;56.68;98081.03;6242207;28;20275;-44
2023/07/10 09:22:25;;;;;;;4.95;4.45;;;;;;;27.38;42.46;98072.47;6241917;28;20240;-45
2023/07/10 09:25:28;;;;;;;5.75;4.22;;;;;;;27.51;46.26;98074.06;6241337;28;20235;-43
2023/07/10 09:28:31;;;;;;;6.10;4.05;;;;;;;27.61;48.27;98076.34;6243779;28;20240;-44
2023/07/10 09:31:49;;;;;;;4.97;4.43;;;;;;;27.74;47.43;98075.22;6238657;28;20716;-45
2023/07/10 09:34:58;;;;;;;5.45;4.40;;;;;;;28.04;42.05;98074.94;6244385;28;20235;-45
2023/07/10 09:38:03;;;;;;;6.35;4.25;;;;;;;28.10;46.60;98073.53;6239119;28;20238;-47
2023/07/10 09:41:11;;;;;;;5.95;4.28;;;;;;;28.09;44.44;98068.41;6238847;28;20596;-44
2023/07/10 09:44:22;;;;;;;4.72;4.18;;;;;;;28.11;47.73;98066.13;6245033;28;20223;-44
2023/07/10 09:47:40;;;;;;;8.43;4.55;;;;;;;28.12;49.41;98067.69;6236462;28;20228;-56
2023/07/10 09:50:49;;;;;;;4.70;4.20;;;;;;;27.97;51.78;98067.28;6238555;28;20231;-55
2023/07/10 09:53:53;;;;;;;6.85;4.80;;;;;;;27.95;50.54;98066.06;6243995;28;20231;-55
2023/07/10 09:56:55;;;;;;;5.43;4.25;;;;;;;27.97;48.63;98061.00;6248873;28;20607;-55
2023/07/10 09:59:59;;;;;;;6.03;4.80;;;;;;;27.79;45.90;98041.34;6247128;28;20238;-55
2023/07/10 10:03:09;;;;;;;5.78;4.00;;;;;;;28.05;44.28;98054.59;6244066;28;20224;-56
2023/07/10 10:06:26;;;;;;;4.72;4.32;;;;;;;28.11;46.50;98055.16;6244434;28;20696;-45
2023/07/10 10:09:29;;;;;;;6.22;4.20;;;;;;;27.77;45.38;97997.84;6245134;28;20227;-51
2023/07/10 10:12:36;;;;;;;6.50;4.40;;;;;;;28.42;44.09;98055.28;6244769;28;20240;-47
2023/07/10 10:16:11;;;;;;;7.05;5.10;;;;;;;28.82;39.55;98048.91;6242034;28;20231;-46
2023/07/10 10:19:19;;;;;;;5.20;4.53;;;;;;;28.97;36.96;98048.13;6249351;28;20807;-46
2023/07/10 10:22:29;;;;;;;5.28;4.43;;;;;;;29.16;37.43;98049.34;6242496;28;20567;-45
2023/07/10 10:25:37;;;;;;;4.72;4.30;;;;;;;29.11;43.16;98052.38;6243563;28;20831;-47
2023/07/10 10:29:03;;;;;;;6.35;4.93;;;;;;;28.99;45.03;98040.34;6241638;28;20255;-47
2023/07/10 10:32:07;;;;;;;5.15;4.00;;;;;;;28.92;44.56;98040.16;6235801;28;20613;-46
2023/07/10 10:35:36;;;;;;;5.18;4.32;;;;;;;28.83;45.05;98045.00;6243518;28;20602;-47
2023/07/10 10:38:49;;;;;;;5.97;4.57;;;;;;;28.85;44.45;98034.47;6244942;28;20241;-45
2023/07/10 10:41:56;;;;;;;5.20;4.40;;;;;;;28.77;44.56;98002.53;6244659;28;20606;-46
2023/07/10 10:45:28;;;;;;;6.32;4.90;;;;;;;29.35;38.61;98029.41;6243019;28;20234;-45
2023/07/10 10:48:45;;;;;;;4.50;4.10;;;;;;;29.53;41.53;98036.91;6242357;28;20362;-46
2023/07/10 10:52:05;;;;;;;4.43;4.03;;;;;;;29.62;42.82;98027.72;6242440;28;20235;-47
2023/07/10 10:55:33;;;;;;;5.40;4.45;;;;;;;29.65;42.84;98021.50;6242653;28;20721;-47
2023/07/10 10:59:02;;;;;;;5.18;4.35;;;;;;;29.72;42.23;98021.66;6247837;28;20770;-48
2023/07/10 11:02:43;;;;;;;4.97;4.45;;;;;;;30.20;35.85;98020.31;6244101;28;20239;-47
2023/07/10 11:05:49;;;;;;;6.63;4.50;;;;;;;30.02;37.35;97969.69;6173019;28;20225;-46
2023/07/10 11:08:56;;;;;;;5.57;4.15;;;;;;;30.15;40.09;98003.31;6242835;28;20234;-46
2023/07/10 11:12:00;;;;;;;5.40;4.50;;;;;;;30.08;40.26;98014.94;6246867;28;20235;-46
2023/07/10 11:15:13;;;;;;;4.25;3.85;;;;;;;29.93;41.67;98005.59;6239493;28;20736;-45
2023/07/10 11:18:16;;;;;;;5.63;4.25;;;;;;;29.86;43.93;98010.19;6243500;28;20267;-48
2023/07/10 11:21:19;;;;;;;5.53;4.68;;;;;;;30.13;35.68;98005.63;6241289;28;20239;-46
2023/07/10 11:24:32;;;;;;;5.00;4.50;;;;;;;30.64;31.46;98003.47;6241163;28;20231;-45
2023/07/10 11:27:41;;;;;;;5.47;4.82;;;;;;;30.71;31.51;98002.81;6233162;28;20227;-46
2023/07/10 11:30:44;;;;;;;7.63;4.57;;;;;;;30.83;30.40;98003.41;6242100;28;20281;-46
2023/07/10 11:34:02;;;;;;;7.00;4.72;;;;;;;31.09;29.17;98001.88;6232957;28;21146;-45
2023/07/10 11:37:33;;;;;;;6.07;5.00;;;;;;;31.46;26.29;97991.03;6244775;28;20258;-46
2023/07/10 11:40:41;;;;;;;7.57;4.80;;;;;;;31.34;29.63;98003.06;6244901;28;20785;-46
2023/07/10 11:43:49;;;;;;;7.50;4.93;;;;;;;31.48;27.82;97993.44;6241364;28;20231;-46
2023/07/10 11:46:57;;;;;;;8.35;5.05;;;;;;;31.52;32.57;97995.03;6247396;28;20709;-45
2023/07/10 11:49:59;;;;;;;4.55;4.15;;;;;;;31.25;33.79;97994.25;6239798;28;20308;-46
2023/07/10 11:53:20;;;;;;;5.60;4.45;;;;;;;31.30;31.54;97988.44;6241087;28;20719;-45
2023/07/10 11:56:25;;;;;;;6.55;4.85;;;;;;;31.34;27.77;97983.00;6241460;28;20227;-48
2023/07/10 11:59:27;;;;;;;5.95;4.50;;;;;;;31.07;36.83;97973.91;6244725;28;20224;-45
2023/07/10 12:02:37;;;;;;;5.32;4.40;;;;;;;30.91;35.97;97985.06;6243883;28;20235;-46
2023/07/10 12:05:39;;;;;;;4.60;4.18;;;;;;;30.59;30.52;97948.75;6231477;28;20231;-45
2023/07/10 12:08:47;;;;;;;6.85;4.38;;;;;;;30.79;30.60;97953.06;6237419;28;20708;-57
2023/07/10 12:11:55;;;;;;;6.22;4.32;;;;;;;31.07;33.64;97979.41;6238265;28;20228;-57
2023/07/10 12:15:01;;;;;;;6.40;4.72;;;;;;;30.97;33.37;97971.78;6241325;28;20238;-57
2023/07/10 12:18:07;;;;;;;5.22;3.80;;;;;;;31.16;29.86;97949.66;6240916;28;20704;-56
2023/07/10 12:21:19;;;;;;;6.70;4.63;;;;;;;31.61;28.09;97953.44;6242418;28;20267;-57
2023/07/10 12:24:22;;;;;;;7.65;4.43;;;;;;;31.69;26.68;97952.38;6243211;28;20228;-57
2023/07/10 12:27:24;;;;;;;4.38;3.67;;;;;;;31.73;31.23;97958.72;6235357;28;20222;-57
2023/07/10 12:30:51;;;;;;;8.15;4.00;;;;;;;31.97;25.75;97945.63;6243396;28;20239;-56
2023/07/10 12:33:53;;;;;;;6.18;4.13;;;;;;;32.00;27.14;97942.13;6238889;28;20231;-57
2023/07/10 12:37:00;;;;;;;4.55;3.78;;;;;;;32.04;29.19;97934.69;6244027;28;20218;-57
2023/07/10 12:40:03;;;;;;;3.97;3.58;;;;;;;31.98;32.82;97934.25;6243103;28;20235;-57
2023/07/10 12:43:23;;;;;;;4.80;4.30;;;;;;;31.87;31.75;97938.03;6239924;28;20263;-57
2023/07/10 12:46:28;;;;;;;5.88;4.20;;;;;;;31.73;35.80;97936.69;6240837;28;20232;-57
2023/07/10 12:49:32;;;;;;;4.18;3.78;;;;;;;31.62;36.99;97933.00;6241451;28;20777;-57
2023/07/10 12:52:37;;;;;;;5.47;4.00;;;;;;;31.63;36.97;97925.56;6234760;28;20227;-55
2023/07/10 12:55:39;;;;;;;5.13;3.67;;;;;;;31.48;36.79;97916.31;6242135;28;20785;-53
2023/07/10 12:58:41;;;;;;;6.70;3.90;;;;;;;31.28;37.08;97924.72;6251229;28;20607;-54
2023/07/10 13:01:49;;;;;;;3.85;3.40;;;;;;;30.87;37.69;97929.19;6239599;28;20631;-53
2023/07/10 13:05:02;;;;;;;4.70;3.65;;;;;;;30.44;38.16;97920.22;6240235;28;20373;-53
2023/07/10 13:08:12;;;;;;;3.97;3.58;;;;;;;30.04;38.76;97910.44;6240019;28;20231;-54
2023/07/10 13:11:22;;;;;;;4.30;3.90;;;;;;;29.89;40.33;97925.06;6246098;28;20250;-54
2023/07/10 13:14:41;;;;;;;3.75;3.40;;;;;;;29.77;41.22;97919.75;6232651;28;20238;-55
2023/07/10 13:17:52;;;;;;;5.78;3.80;;;;;;;29.73;41.13;97913.38;6241653;28;20607;-56
2023/07/10 13:20:54;;;;;;;5.15;3.90;;;;;;;29.80;41.03;97917.09;6244395;28;20250;-50
2023/07/10 13:23:56;;;;;;;4.90;3.95;;;;;;;29.66;43.36;97911.31;6244924;28;20583;-49
2023/07/10 13:26:58;;;;;;;4.45;3.95;;;;;;;29.39;49.11;97899.34;6251131;28;20838;-50
2023/07/10 13:30:01;;;;;;;6.75;3.88;;;;;;;29.21;48.92;97903.66;6252712;28;20239;-55
2023/07/10 13:33:14;;;;;;;4.88;3.83;;;;;;;29.28;46.28;97909.31;6246502;28;20305;-55
2023/07/10 13:36:19;;;;;;;4.60;3.88;;;;;;;29.29;44.10;97906.19;6244341;28;20214;-55
2023/07/10 13:39:22;;;;;;;4.82;3.97;;;;;;;29.38;42.38;97902.44;6244688;28;20245;-58
2023/07/10 13:42:25;;;;;;;4.47;4.00;;;;;;;29.41;43.06;97912.69;6243329;28;20230;-53
2023/07/10 13:45:27;;;;;;;5.93;4.43;;;;;;;29.47;37.66;97912.06;6251803;28;20272;-56
2023/07/10 13:48:30;;;;;;;3.95;3.53;;;;;;;29.27;41.71;97916.75;6242511;28;20239;-54
2023/07/10 13:51:33;;;;;;;4.10;3.70;;;;;;;29.23;39.16;97917.81;6243353;28;20581;-54
2023/07/10 13:54:35;;;;;;;4.70;3.92;;;;;;;29.23;41.37;97926.84;6244375;28;20250;-54
2023/07/10 13:57:37;;;;;;;7.22;3.95;;;;;;;29.22;34.90;97919.78;6245815;28;20246;-53
2023/07/10 14:00:39;;;;;;;4.43;3.88;;;;;;;29.22;37.55;97906.06;6241699;28;20230;-54
2023/07/10 14:03:43;;;;;;;4.20;3.80;;;;;;;29.17;42.01;97928.28;6248905;28;20373;-53
2023/07/10 14:06:45;;;;;;;5.25;3.72;;;;;;;29.04;40.18;97932.28;6243873;28;20246;-55
2023/07/10 14:09:48;;;;;;;4.40;3.45;;;;;;;28.71;43.26;97935.38;6243970;28;20238;-54
2023/07/10 14:12:51;;;;;;;5.00;3.85;;;;;;;28.24;43.39;97936.16;6233803;28;20708;-54
2023/07/10 14:16:00;;;;;;;6.10;3.95;;;;;;;28.00;42.60;97939.81;6245534;28;20722;-54
2023/07/10 14:19:02;;;;;;;4.95;3.75;;;;;;;27.72;42.18;97942.56;6245792;28;20975;-53
2023/07/10 14:22:05;;;;;;;4.97;3.13;;;;;;;27.58;40.95;97936.66;6250045;28;20238;-56
2023/07/10 14:25:11;;;;;;;4.38;3.80;;;;;;;27.46;41.44;97951.97;6242213;28;20253;-53
2023/07/10 14:28:20;;;;;;;5.82;3.90;;;;;;;27.48;40.34;97951.59;6242848;28;20220;-53
2023/07/10 14:31:22;;;;;;;4.03;3.63;;;;;;;27.47;41.62;97950.81;6245042;28;20576;-53
2023/07/10 14:34:24;;;;;;;5.18;3.40;;;;;;;27.41;41.57;97952.22;6242787;28;20250;-53
2023/07/10 14:37:27;;;;;;;7.28;3.80;;;;;;;27.33;42.22;97963.28;6245908;28;20239;-53
2023/07/10 14:40:29;;;;;;;5.63;3.60;;;;;;;27.29;39.32;97962.38;6243388;28;20609;-54
2023/07/10 14:43:31;;;;;;;6.50;3.92;;;;;;;27.31;39.73;97957.38;6243537;28;20704;-53